sensor_id;sensor_type;location;lat;lon;timestamp;P1;durP1;ratioP1;P2;durP2;ratioP2
56718;SDS011;42597;40.636;0.278;2022-11-12T00:01:53;4.68;;;2.13;;
56718;SDS011;42597;40.636;0.278;2022-11-12T00:04:18;7.85;;;2.13;;
56718;SDS011;42597;40.636;0.278;2022-11-12T00:06:44;5.72;;;2.40;;
56718;SDS011;42597;40.636;0.278;2022-11-12T00:09:10;6.35;;;2.70;;
56718;SDS011;42597;40.636;0.278;2022-11-12T00:11:35;6.47;;;2.50;;
56718;SDS011;42597;40.636;0.278;2022-11-12T00:14:01;4.32;;;2.38;;
56718;SDS011;42597;40.636;0.278;2022-11-12T00:16:26;6.00;;;3.08;;
56718;SDS011;42597;40.636;0.278;2022-11-12T00:18:52;4.68;;;2.60;;
56718;SDS011;42597;40.636;0.278;2022-11-12T00:21:17;4.18;;;2.30;;
56718;SDS011;42597;40.636;0.278;2022-11-12T00:23:43;6.85;;;3.10;;
56718;SDS011;42597;40.636;0.278;2022-11-12T00:26:08;6.35;;;2.15;;
56718;SDS011;42597;40.636;0.278;2022-11-12T00:28:34;3.28;;;1.73;;
56718;SDS011;42597;40.636;0.278;2022-11-12T00:31:05;4.25;;;2.15;;
56718;SDS011;42597;40.636;0.278;2022-11-12T00:33:37;6.43;;;2.60;;
56718;SDS011;42597;40.636;0.278;2022-11-12T00:36:03;6.30;;;2.00;;
56718;SDS011;42597;40.636;0.278;2022-11-12T00:38:29;6.30;;;1.98;;
56718;SDS011;42597;40.636;0.278;2022-11-12T00:40:58;3.85;;;2.33;;
56718;SDS011;42597;40.636;0.278;2022-11-12T00:43:24;6.28;;;2.90;;
56718;SDS011;42597;40.636;0.278;2022-11-12T00:45:49;8.65;;;2.47;;
56718;SDS011;42597;40.636;0.278;2022-11-12T00:48:15;6.10;;;2.70;;
56718;SDS011;42597;40.636;0.278;2022-11-12T00:50:40;6.57;;;3.22;;
56718;SDS011;42597;40.636;0.278;2022-11-12T00:53:06;10.07;;;2.60;;
56718;SDS011;42597;40.636;0.278;2022-11-12T00:55:31;5.55;;;2.75;;
56718;SDS011;42597;40.636;0.278;2022-11-12T00:57:57;3.72;;;2.35;;
56718;SDS011;42597;40.636;0.278;2022-11-12T01:00:23;6.68;;;2.50;;
56718;SDS011;42597;40.636;0.278;2022-11-12T01:02:49;3.60;;;1.92;;
56718;SDS011;42597;40.636;0.278;2022-11-12T01:05:15;3.58;;;2.05;;
56718;SDS011;42597;40.636;0.278;2022-11-12T01:07:41;7.55;;;2.53;;
56718;SDS011;42597;40.636;0.278;2022-11-12T01:10:08;5.82;;;2.35;;
56718;SDS011;42597;40.636;0.278;2022-11-12T01:12:34;5.18;;;1.73;;
56718;SDS011;42597;40.636;0.278;2022-11-12T01:15:00;4.97;;;2.10;;
56718;SDS011;42597;40.636;0.278;2022-11-12T01:17:26;8.20;;;2.78;;
56718;SDS011;42597;40.636;0.278;2022-11-12T01:19:51;3.42;;;1.77;;
56718;SDS011;42597;40.636;0.278;2022-11-12T01:22:17;3.95;;;2.50;;
56718;SDS011;42597;40.636;0.278;2022-11-12T01:24:43;6.75;;;2.50;;
56718;SDS011;42597;40.636;0.278;2022-11-12T01:27:08;6.18;;;2.67;;
56718;SDS011;42597;40.636;0.278;2022-11-12T01:29:34;3.22;;;2.10;;
56718;SDS011;42597;40.636;0.278;2022-11-12T01:31:59;5.03;;;2.13;;
56718;SDS011;42597;40.636;0.278;2022-11-12T01:34:25;10.70;;;2.50;;
56718;SDS011;42597;40.636;0.278;2022-11-12T01:36:51;10.60;;;3.33;;
56718;SDS011;42597;40.636;0.278;2022-11-12T01:39:16;7.97;;;2.85;;
56718;SDS011;42597;40.636;0.278;2022-11-12T01:41:42;9.50;;;3.85;;
56718;SDS011;42597;40.636;0.278;2022-11-12T01:44:15;12.73;;;3.75;;
56718;SDS011;42597;40.636;0.278;2022-11-12T01:54:45;7.95;;;4.15;;
56718;SDS011;42597;40.636;0.278;2022-11-12T01:57:16;5.55;;;3.50;;
56718;SDS011;42597;40.636;0.278;2022-11-12T01:59:47;4.22;;;2.63;;
56718;SDS011;42597;40.636;0.278;2022-11-12T02:02:17;6.55;;;3.00;;
56718;SDS011;42597;40.636;0.278;2022-11-12T02:04:42;6.72;;;3.03;;
56718;SDS011;42597;40.636;0.278;2022-11-12T02:07:08;5.68;;;2.75;;
56718;SDS011;42597;40.636;0.278;2022-11-12T02:09:35;7.97;;;3.58;;
56718;SDS011;42597;40.636;0.278;2022-11-12T02:12:01;9.32;;;2.67;;
56718;SDS011;42597;40.636;0.278;2022-11-12T02:14:27;5.70;;;2.42;;
56718;SDS011;42597;40.636;0.278;2022-11-12T02:16:54;4.95;;;2.80;;
56718;SDS011;42597;40.636;0.278;2022-11-12T02:19:19;4.65;;;1.92;;
56718;SDS011;42597;40.636;0.278;2022-11-12T02:21:45;4.65;;;1.63;;
56718;SDS011;42597;40.636;0.278;2022-11-12T02:26:37;5.57;;;2.25;;
56718;SDS011;42597;40.636;0.278;2022-11-12T02:29:10;5.00;;;2.28;;
56718;SDS011;42597;40.636;0.278;2022-11-12T02:31:35;8.80;;;2.50;;
56718;SDS011;42597;40.636;0.278;2022-11-12T02:34:01;5.57;;;2.47;;
56718;SDS011;42597;40.636;0.278;2022-11-12T02:36:27;9.88;;;3.35;;
56718;SDS011;42597;40.636;0.278;2022-11-12T02:38:53;10.30;;;3.17;;
56718;SDS011;42597;40.636;0.278;2022-11-12T02:41:19;5.75;;;2.97;;
56718;SDS011;42597;40.636;0.278;2022-11-12T02:43:44;7.85;;;3.55;;
56718;SDS011;42597;40.636;0.278;2022-11-12T02:46:10;8.80;;;4.50;;
56718;SDS011;42597;40.636;0.278;2022-11-12T02:48:36;8.00;;;3.67;;
56718;SDS011;42597;40.636;0.278;2022-11-12T02:51:02;8.77;;;4.22;;
56718;SDS011;42597;40.636;0.278;2022-11-12T02:53:28;6.32;;;3.90;;
56718;SDS011;42597;40.636;0.278;2022-11-12T02:55:54;12.63;;;5.72;;
56718;SDS011;42597;40.636;0.278;2022-11-12T02:58:19;14.05;;;5.43;;
56718;SDS011;42597;40.636;0.278;2022-11-12T03:00:46;7.43;;;4.20;;
56718;SDS011;42597;40.636;0.278;2022-11-12T03:03:12;16.17;;;6.07;;
56718;SDS011;42597;40.636;0.278;2022-11-12T03:05:37;16.23;;;5.47;;
56718;SDS011;42597;40.636;0.278;2022-11-12T03:08:06;8.82;;;5.68;;
56718;SDS011;42597;40.636;0.278;2022-11-12T03:10:33;11.55;;;5.63;;
56718;SDS011;42597;40.636;0.278;2022-11-12T03:13:02;17.52;;;7.82;;
56718;SDS011;42597;40.636;0.278;2022-11-12T03:15:28;9.77;;;5.35;;
56718;SDS011;42597;40.636;0.278;2022-11-12T03:17:56;9.55;;;4.93;;
56718;SDS011;42597;40.636;0.278;2022-11-12T03:20:22;24.83;;;7.90;;
56718;SDS011;42597;40.636;0.278;2022-11-12T03:22:56;8.82;;;4.22;;
56718;SDS011;42597;40.636;0.278;2022-11-12T03:25:26;10.63;;;5.25;;
56718;SDS011;42597;40.636;0.278;2022-11-12T03:27:59;13.65;;;7.00;;
56718;SDS011;42597;40.636;0.278;2022-11-12T03:30:27;16.10;;;6.50;;
56718;SDS011;42597;40.636;0.278;2022-11-12T03:32:53;12.70;;;6.60;;
56718;SDS011;42597;40.636;0.278;2022-11-12T03:35:19;10.48;;;5.93;;
56718;SDS011;42597;40.636;0.278;2022-11-12T03:37:45;9.98;;;4.80;;
56718;SDS011;42597;40.636;0.278;2022-11-12T03:40:10;5.80;;;4.07;;
56718;SDS011;42597;40.636;0.278;2022-11-12T03:42:36;12.07;;;4.78;;
56718;SDS011;42597;40.636;0.278;2022-11-12T03:45:01;10.27;;;4.47;;
56718;SDS011;42597;40.636;0.278;2022-11-12T03:47:27;21.70;;;6.80;;
56718;SDS011;42597;40.636;0.278;2022-11-12T23:26:54;7.75;;;3.10;;
56718;SDS011;42597;40.636;0.278;2022-11-12T23:29:19;5.97;;;2.83;;
56718;SDS011;42597;40.636;0.278;2022-11-12T23:31:45;4.50;;;2.55;;
56718;SDS011;42597;40.636;0.278;2022-11-12T23:34:11;5.63;;;3.00;;
56718;SDS011;42597;40.636;0.278;2022-11-12T23:36:37;5.68;;;3.13;;
56718;SDS011;42597;40.636;0.278;2022-11-12T23:39:03;4.70;;;2.42;;
56718;SDS011;42597;40.636;0.278;2022-11-12T23:41:28;7.20;;;2.28;;
56718;SDS011;42597;40.636;0.278;2022-11-12T23:43:54;4.07;;;2.40;;
56718;SDS011;42597;40.636;0.278;2022-11-12T23:46:21;5.43;;;2.45;;
56718;SDS011;42597;40.636;0.278;2022-11-12T23:48:48;5.82;;;2.75;;
56718;SDS011;42597;40.636;0.278;2022-11-12T23:51:15;3.83;;;2.50;;
56718;SDS011;42597;40.636;0.278;2022-11-12T23:53:43;8.07;;;3.92;;
56718;SDS011;42597;40.636;0.278;2022-11-12T23:56:10;5.03;;;2.38;;
56718;SDS011;42597;40.636;0.278;2022-11-12T23:58:37;7.78;;;2.72;;
